createdAt,value
2022-08-19T00:04:42.972Z,12.00
2022-08-19T00:09:45.699Z,11.85
2022-08-19T00:14:49.865Z,13.68
2022-08-19T00:19:52.619Z,13.90
2022-08-19T00:24:55.326Z,14.27
2022-08-19T00:30:02.913Z,13.15
2022-08-19T00:35:06.329Z,13.50
2022-08-19T00:40:10.272Z,14.00
2022-08-19T00:45:18.316Z,13.43
2022-08-19T00:50:22.001Z,13.65
2022-08-19T00:55:29.690Z,13.55
2022-08-19T01:00:37.504Z,13.27
2022-08-19T01:05:42.327Z,14.02
2022-08-19T01:10:48.345Z,13.93
2022-08-19T01:15:56.444Z,15.25
2022-08-19T01:21:16.957Z,13.93
2022-08-19T01:26:25.360Z,13.48
2022-08-19T01:31:32.681Z,15.07
2022-08-19T01:36:38.308Z,14.32
2022-08-19T01:41:42.618Z,14.68
2022-08-19T01:46:45.591Z,16.92
2022-08-19T01:51:50.395Z,15.05
2022-08-19T01:56:55.560Z,15.80
2022-08-19T02:01:58.467Z,16.48
2022-08-19T02:07:01.250Z,14.18
2022-08-19T02:12:05.669Z,14.10
2022-08-19T02:17:08.345Z,13.93
2022-08-19T02:22:11.104Z,12.85
2022-08-19T02:27:15.262Z,13.85
2022-08-19T02:32:19.767Z,12.75
2022-08-19T02:37:39.975Z,12.90
2022-08-19T02:42:44.097Z,10.68
2022-08-19T02:47:46.875Z,11.07
2022-08-19T02:52:49.720Z,10.60
2022-08-19T02:57:53.833Z,10.52
2022-08-19T03:02:56.952Z,10.20
2022-08-19T03:07:59.945Z,10.32
2022-08-19T03:13:04.945Z,10.20
2022-08-19T03:18:07.900Z,9.77
2022-08-19T03:23:12.310Z,9.50
2022-08-19T03:28:16.967Z,8.73
2022-08-19T03:33:28.494Z,9.73
2022-08-19T03:38:31.476Z,9.15
2022-08-19T03:43:36.673Z,9.88
2022-08-19T03:48:41.002Z,10.65
2022-08-19T03:53:43.689Z,9.50
2022-08-19T03:58:48.257Z,10.07
2022-08-19T04:03:51.223Z,9.95
2022-08-19T04:08:55.787Z,9.50
2022-08-19T04:14:00.400Z,9.02
2022-08-19T04:19:08.472Z,10.77
2022-08-19T04:24:11.568Z,11.38
2022-08-19T04:29:17.781Z,11.20
2022-08-19T04:34:23.451Z,10.43
2022-08-19T04:39:44.520Z,9.07
2022-08-19T04:44:48.767Z,10.25
2022-08-19T04:49:51.425Z,10.32
2022-08-19T04:54:56.273Z,11.13
2022-08-19T05:00:00.375Z,11.82
2022-08-19T05:05:03.189Z,10.95
2022-08-19T05:10:07.498Z,12.07
2022-08-19T05:15:12.599Z,12.05
2022-08-19T05:20:32.825Z,13.02
2022-08-19T05:25:35.572Z,14.98
2022-08-19T05:30:47.255Z,13.30
2022-08-19T05:35:51.047Z,13.15
2022-08-19T05:40:53.868Z,13.80
2022-08-19T05:45:58.057Z,14.00
2022-08-19T05:51:06.388Z,15.60
2022-08-19T05:56:10.219Z,16.52
2022-08-19T06:01:16.613Z,19.75
2022-08-19T06:06:19.958Z,16.83
2022-08-19T06:11:25.059Z,16.90
2022-08-19T06:16:31.071Z,17.10
2022-08-19T06:21:33.896Z,18.83
2022-08-19T06:26:38.252Z,18.38
2022-08-19T06:31:45.889Z,20.83
2022-08-19T06:36:52.102Z,17.45
2022-08-19T06:41:58.657Z,18.75
2022-08-19T06:47:14.219Z,18.42
2022-08-19T06:52:17.993Z,18.30
2022-08-19T06:57:20.706Z,22.23
2022-08-19T07:02:27.271Z,22.05
2022-08-19T07:07:29.990Z,20.40
2022-08-19T07:12:35.790Z,21.13
2022-08-19T07:17:41.787Z,24.58
2022-08-19T07:22:44.848Z,22.55
2022-08-19T07:27:48.705Z,24.85
2022-08-19T07:32:58.854Z,23.13
2022-08-19T07:38:03.611Z,28.48
2022-08-19T07:43:06.381Z,30.13
2022-08-19T07:48:11.461Z,30.25
2022-08-19T07:53:14.363Z,27.75
2022-08-19T07:58:20.207Z,32.38
2022-08-19T08:03:45.465Z,25.42
2022-08-19T08:09:06.946Z,25.00
2022-08-19T08:14:34.886Z,23.55
2022-08-19T08:19:35.182Z,26.23
2022-08-19T08:24:38.238Z,23.25
2022-08-19T08:29:43.234Z,24.38
2022-08-19T08:34:51.732Z,24.65
2022-08-19T08:39:55.485Z,22.85
2022-08-19T08:45:02.187Z,22.92
2022-08-19T08:50:07.963Z,23.35
2022-08-19T08:55:13.916Z,22.67
2022-08-19T09:00:20.682Z,20.23
2022-08-19T09:05:26.284Z,25.73
2022-08-19T09:10:32.795Z,23.00
2022-08-19T09:15:38.875Z,21.48
2022-08-19T09:20:43.218Z,21.65
2022-08-19T09:25:46.176Z,24.85
2022-08-19T09:30:48.900Z,27.10
2022-08-19T09:36:04.423Z,24.33
2022-08-19T09:41:14.515Z,23.33
2022-08-19T09:46:19.090Z,23.20
2022-08-19T09:51:25.718Z,21.65
2022-08-19T09:56:28.513Z,20.52
2022-08-19T10:01:32.710Z,23.30
2022-08-19T10:06:46.486Z,21.77
2022-08-19T10:11:54.995Z,23.17
2022-08-19T10:16:59.104Z,22.88
2022-08-19T10:22:05.316Z,24.90
2022-08-19T10:27:14.182Z,21.67
2022-08-19T10:32:18.865Z,23.35
2022-08-19T10:37:44.942Z,24.80
2022-08-19T10:42:59.967Z,21.77
2022-08-19T10:48:02.661Z,17.80
2022-08-19T10:53:09.841Z,18.30
2022-08-19T10:58:14.406Z,18.73
2022-08-19T11:03:17.186Z,18.60
2022-08-19T11:08:23.303Z,15.65
2022-08-19T11:13:26.756Z,15.30
2022-08-19T11:18:29.826Z,14.85
2022-08-19T11:23:33.960Z,14.50
2022-08-19T11:28:37.143Z,13.98
2022-08-19T11:33:39.872Z,15.25
2022-08-19T11:38:44.346Z,14.30
2022-08-19T11:43:47.171Z,13.40
2022-08-19T11:48:50.651Z,14.55
2022-08-19T11:53:55.159Z,13.18
2022-08-19T11:58:58.619Z,14.80
2022-08-19T12:04:01.880Z,16.65
2022-08-19T12:09:08.495Z,12.23
2022-08-19T12:14:15.075Z,12.20
2022-08-19T12:19:22.439Z,12.38
2022-08-19T12:24:27.199Z,11.45
2022-08-19T12:29:30.645Z,10.50
2022-08-19T12:34:34.643Z,10.43
2022-08-19T12:39:40.527Z,10.60
2022-08-19T12:44:44.798Z,10.13
2022-08-19T12:49:54.622Z,12.02
2022-08-19T12:55:00.111Z,11.38
2022-08-19T13:00:08.972Z,12.15
2022-08-19T13:05:14.248Z,13.88
2022-08-19T13:10:21.128Z,15.02
2022-08-19T13:15:25.000Z,14.68
2022-08-19T13:20:27.907Z,10.73
2022-08-19T13:25:32.206Z,9.85
2022-08-19T13:30:52.448Z,12.32
2022-08-19T13:36:01.281Z,8.98
2022-08-19T13:41:12.177Z,13.82
2022-08-19T13:46:17.620Z,12.23
2022-08-19T13:51:20.577Z,12.10
2022-08-19T13:56:26.398Z,12.43
2022-08-19T14:01:31.423Z,12.30
2022-08-19T14:06:34.392Z,14.38
2022-08-19T14:11:39.059Z,10.07
2022-08-19T14:16:42.081Z,11.38
2022-08-19T14:21:45.037Z,11.60
2022-08-19T14:26:49.794Z,11.00
2022-08-19T14:31:52.682Z,12.43
2022-08-19T14:36:55.646Z,11.45
2022-08-19T14:42:00.047Z,12.40
2022-08-19T14:47:04.165Z,11.43
2022-08-19T14:52:07.700Z,12.27
2022-08-19T14:57:13.406Z,15.10
2022-08-19T15:02:33.620Z,16.00
2022-08-19T15:07:37.893Z,12.30
2022-08-19T15:12:43.478Z,13.40
2022-08-19T15:17:47.356Z,12.35
2022-08-19T15:22:50.227Z,10.88
2022-08-19T15:27:54.728Z,9.93
2022-08-19T15:32:59.771Z,11.20
2022-08-19T15:38:02.563Z,10.23
2022-08-19T15:43:06.879Z,11.30
2022-08-19T15:48:09.687Z,9.57
2022-08-19T15:53:12.727Z,10.75
2022-08-19T15:58:34.158Z,9.63
2022-08-19T16:03:54.710Z,9.55
2022-08-19T16:08:59.420Z,9.23
2022-08-19T16:14:04.159Z,12.93
2022-08-19T16:19:11.807Z,10.20
2022-08-19T16:24:16.618Z,11.77
2022-08-19T16:29:33.844Z,12.30
2022-08-19T16:34:38.007Z,13.82
2022-08-19T16:39:41.276Z,12.27
2022-08-19T16:44:47.779Z,14.20
2022-08-19T16:49:52.990Z,10.20
2022-08-19T16:54:58.264Z,11.23
2022-08-19T17:00:05.368Z,10.68
2022-08-19T17:05:10.025Z,9.88
2022-08-19T17:10:12.810Z,10.93
2022-08-19T17:15:16.971Z,11.95
2022-08-19T17:20:20.283Z,11.48
2022-08-19T17:25:23.110Z,10.82
2022-08-19T17:30:27.485Z,10.27
2022-08-19T17:35:30.404Z,8.70
2022-08-19T17:40:33.473Z,8.73
2022-08-19T17:45:38.732Z,9.13
2022-08-19T17:50:41.674Z,9.75
2022-08-19T17:55:44.995Z,9.98
2022-08-19T18:00:54.463Z,9.23
2022-08-19T18:05:58.558Z,8.15
2022-08-19T18:11:01.397Z,8.55
2022-08-19T18:16:06.953Z,7.90
2022-08-19T18:21:10.477Z,7.97
2022-08-19T18:26:13.527Z,8.02
2022-08-19T18:31:18.021Z,9.57
2022-08-19T18:36:37.727Z,6.97
2022-08-19T18:42:01.958Z,7.93
2022-08-19T18:47:23.454Z,8.32
2022-08-19T18:52:27.230Z,7.32
2022-08-19T18:57:30.136Z,7.63
2022-08-19T19:02:38.872Z,8.43
2022-08-19T19:07:41.726Z,8.80
2022-08-19T19:12:45.587Z,7.20
2022-08-19T19:17:50.025Z,9.00
2022-08-19T19:22:53.694Z,7.75
2022-08-19T19:28:01.158Z,8.93
2022-08-19T19:33:05.929Z,7.13
2022-08-19T19:38:08.636Z,8.80
2022-08-19T19:43:11.350Z,9.10
2022-08-19T19:48:16.442Z,9.85
2022-08-19T19:53:19.343Z,10.25
2022-08-19T19:58:28.354Z,10.73
2022-08-19T20:03:33.646Z,10.43
2022-08-19T20:08:54.079Z,10.20
2022-08-19T20:13:57.162Z,9.63
2022-08-19T20:19:02.646Z,11.20
2022-08-19T20:24:08.982Z,12.63
2022-08-19T20:29:38.439Z,13.23
2022-08-19T20:34:37.173Z,14.45
2022-08-19T20:39:39.953Z,12.05
2022-08-19T20:44:42.718Z,12.93
2022-08-19T20:49:47.587Z,12.13
2022-08-19T20:54:50.283Z,12.75
2022-08-19T20:59:53.008Z,12.73
2022-08-19T21:05:00.359Z,14.02
2022-08-19T21:10:03.183Z,14.93
2022-08-19T21:15:08.736Z,14.55
2022-08-19T21:20:13.470Z,13.95
2022-08-19T21:25:17.066Z,16.30
2022-08-19T21:30:19.976Z,18.63
2022-08-19T21:35:24.417Z,14.55
2022-08-19T21:40:28.028Z,16.10
2022-08-19T21:45:31.297Z,14.40
2022-08-19T21:50:35.599Z,13.95
2022-08-19T21:55:39.069Z,16.15
2022-08-19T22:00:42.027Z,13.20
2022-08-19T22:05:46.168Z,15.20
2022-08-19T22:10:49.835Z,17.50
2022-08-19T22:15:55.260Z,16.88
2022-08-19T22:20:59.359Z,15.88
2022-08-19T22:26:02.393Z,16.63
2022-08-19T22:31:05.841Z,13.63
2022-08-19T22:36:10.825Z,15.23
2022-08-19T22:41:13.512Z,14.15
2022-08-19T22:46:17.314Z,14.15
2022-08-19T22:51:39.564Z,14.60
2022-08-19T22:56:43.332Z,16.02
2022-08-19T23:01:46.269Z,16.77
2022-08-19T23:06:52.796Z,15.90
2022-08-19T23:11:55.566Z,16.02
2022-08-19T23:16:59.246Z,15.98
2022-08-19T23:22:05.192Z,16.90
2022-08-19T23:27:25.571Z,16.88
2022-08-19T23:32:28.322Z,15.05
2022-08-19T23:37:32.482Z,17.67
2022-08-19T23:42:35.340Z,18.52
2022-08-19T23:47:41.270Z,18.10
2022-08-19T23:52:49.704Z,18.50
2022-08-19T23:57:52.449Z,15.98
